• Join FlightAware (Why Join?)
  • Login
  • US Flag 
Gobble Gobble! 
05:17PM EST


 

Airport Tracker/Info


-or-


 

Live Flight TrackerFlight Track Log ✈ PDT4384 ✈ 2013年 10月 09日 ✈ KPHL - KISP

Flight Track Log - Related Links

Times and Time Zones

All times are in EDT time to prevent confusion due to time zone crossing. See the PDT4384 flight status page for this flight to view local times or setup timezone preferences in your user account.

Time Position Orientation Groundspeed Altitude Reporting Facility
EDT Latitude Longitude Course Direction KTS MPH feet Rate Location/Type
08:33PM 39.8833 -75.2000 90° East 114 131 600  Level Philadelphia TRACON
08:34PM 39.8833 -75.1833 90° East 122 140 1,400 1,560 Climbing Philadelphia TRACON
08:35PM 39.8667 -75.1333 113° Southeast 126 145 3,000 1,200 Climbing Philadelphia TRACON
08:36PM 39.9810 -74.9962 75° East  Level Estimated
08:37PM 40.0172 -74.9145 84° East  Level Estimated
08:37PM 39.8544 -75.0569 102° East 129 148 4,800  Level New York Center
08:38PM 39.9837 -74.8308 118° Southeast  Level FlightAware Approximate
08:38PM 39.8439 -75.0022 104° East 145 167 5,700  Level New York Center
08:39PM 40.0222 -74.7510 90° East  Level Estimated
08:39PM 39.8314 -74.9419 105° East 166 191 6,600  Level New York Center
08:40PM 39.8169 -74.8789 107° East 172 198 7,500 900 Climbing New York Center
08:41PM 39.8028 -74.8078 105° East 187 215 8,400 900 Climbing New York Center
08:42PM 39.7903 -74.7422 104° East 187 215 9,300 900 Climbing New York Center
08:43PM 39.7903 -74.6772 90° East 182 209 10,200 780 Climbing New York Center
08:44PM 39.7989 -74.6103 80° East 182 209 10,900 300 Climbing New York Center
08:45PM 39.8053 -74.5403 83° East 177 204 10,900  Level New York Center
08:46PM 39.8097 -74.4622 86° East 204 235 10,900  Level New York Center
08:47PM 39.8164 -74.3842 84° East 212 244 10,900  Level New York Center
08:48PM 39.8189 -74.3033 88° East 217 250 10,900  Level New York Center
08:49PM 39.8189 -74.2331 90° East 217 250 10,900  Level New York Center
08:50PM 39.8214 -74.1519 88° East 217 250 10,900  Level New York Center
08:51PM 39.8217 -74.0628 90° East 217 250 11,000  Climbing New York Center
08:52PM 39.8197 -73.9844 92° East 217 250 11,000  Level New York Center
08:53PM 39.8175 -73.9114 92° East 217 250 11,000  Level New York Center
08:54PM 39.8361 -73.8364 72° East 217 250 11,000  Level New York Center
08:55PM 39.8794 -73.7733 48° Northeast 214 246 11,000  Level New York Center
08:56PM 39.9186 -73.7103 51° Northeast 219 252 11,000  Level New York Center
08:57PM 39.9619 -73.6497 47° Northeast 225 259 11,000  Level New York Center
08:58PM 40.0031 -73.5864 50° Northeast 225 259 11,000  Level New York Center
08:59PM 40.0397 -73.5311 49° Northeast 225 259 11,000 -360 Level New York Center
09:00PM 40.1100 -73.4222 50° Northeast 235 270 10,100 -660 Descending Boston Center
09:01PM 40.1544 -73.3550 49° Northeast 235 270 9,400 -600 Descending Boston Center
09:02PM 40.2028 -73.2878 47° Northeast 240 276 9,000 -240 Descending Boston Center
09:03PM 40.2472 -73.2203 49° Northeast 240 276 9,000  Level Boston Center
09:04PM 40.2892 -73.1583 48° Northeast 235 270 9,000  Level Boston Center
09:05PM 40.3269 -73.1014 49° Northeast 230 265 9,000  Level Boston Center
09:06PM 40.3669 -73.0392 50° Northeast 230 265 9,000 -480 Level Boston Center
09:08PM 40.4500 -72.9000 52° Northeast 251 289 7,700 -780 Descending New York TRACON
09:09PM 40.5000 -72.8333 45° Northeast 264 304 6,700 -1,080 Descending New York TRACON
09:10PM 40.5667 -72.8000 21° North 278 320 5,700 -1,080 Descending New York TRACON
09:11PM 40.6167 -72.8833 308° West 276 318 4,600 -1,020 Descending New York TRACON
09:12PM 40.6500 -72.9833 294° West 276 318 3,600 -1,020 Descending New York TRACON
09:13PM 40.6833 -73.0667 298° West 270 311 2,600 -840 Descending New York TRACON
09:14PM 40.7167 -73.1333 303° West 210 242 2,000 -660 Descending New York TRACON
09:15PM 40.7500 -73.1667 323° Northwest 142 163 1,400 -660 Descending New York TRACON
09:16PM 40.7667 -73.1333 57° Northeast 100 115 800 -600 Descending New York TRACON